Terminal Aerodrome Forecast
Issued by NWS

Home | Current Version | Previous Version | Text Only | Print | Product List | Glossary Off
Versions: 1 2 3 4 5 6 7 8 9 10 11 12 13 14 15 16 17 18 19 20 21 22 23 24 25 26 27 28 29 30 31 32

000
FTUS44 KTSA 021120
TAFMLC
TAF
KMLC 021120Z 0212/0312 VRB05KT P6SM BKN250 WS020/17045KT
     FM021500 17015G23KT P6SM BKN100
     FM030200 16013KT P6SM BKN030 PROB30 0310/0312 5SM -TSRA BR
      BKN025CB=

USA.gov is the U.S. government's official web portal to all federal, state and local government web resources and services.